Archival Weather

Heathrow

Heathrow, United Kingdom (EGLL)

Report from: Thursday, June 23, 2022 11:20 AM BST
Current time: Tuesday, August 16, 2022 8:00 AM BST

Current weather
Weather history
Weather forecast

Temperature20.0°C (68.0°F)
Dew point14.0°C (57.2°F)
Winds 5 kts (2.6 m/s, 5.8 mph) Vrb
Winds variableWinds variable from North-Northeast (20°) to East (90°)
Visibility6.2 mi. (10 km)
Clouds Sky clear
Altimeter29.83 in.Hg (1010 mB)
Relative humidity68 %
Density altitude917 ft. (279 m)
Remarks Fully automated report
Corrected report
No clouds detected
No significant changes expected in the next two hours
Flight conditions Visual Meteorological Conditions
Raw dataCOR EGLL 231020Z AUTO 05005KT 020V090 9999 NCD 20/14 Q1010 NOSIG
An error has occurred. This application may no longer respond until reloaded. Reload 🗙